PWSweather.com
Personal Weather Stations
Station Observations
KCOBLACK1
Chalet Park, Black Hawk, CO 80422

Chalet ParkBlack Hawk, CO 80422

Lat: 39.8294, Lon: -105.48

Elevation: 9370

Station Type: Vantage Pro2

http://www.oscaranddeb.com/weather

High Low Average
Temperature 70.0°F21.1°F 26.7°F-2.9°F 41.0°F5.0°F
Dew Point 55.4°F13.0°F 2.9°F-16.2°F 15.6°F-9.1°F
Winds 10.0 mph WSW16.1 mph WSW Calm Calm 4.0 mph 6.4 mph
Wind Gusts 23.0 mph37.0 mph -- 8.1 mph13.0 mph
Humidity 61% 18% 37%
Pressure 30.46 in1031.50 in 29.33 in993.20 in -
Precipitation 0.00 in0.00 in - -
Hour Temp Dew Point Humidity Winds Wind Gusts Pressure Precip Precip Rate Daily Precip Total
12:00 AM 47.9°F8.8°C 20.7°F-6.3°C 34% 7.7 mph E12.4 kmh E 9.3 mph15.0 kmh 29.56 in1001.0 mb 0.00 in0.0 mm 0.00 in0.0 mm 0.20 in5.1 mm
12:05 AM 48.4°F9.1°C 21.3°F-5.9°C 34% 7.7 mph E12.4 kmh E 9.2 mph14.8 kmh 29.57 in1001.4 mb 0.00 in0.0 mm 0.00 in0.0 mm 0.20 in5.1 mm
12:10 AM 31.4°F-0.3°C 11.5°F-11.4°C 43% 7.0 mph WSW11.3 kmh WSW 15.0 mph24.1 kmh 29.57 in1001.4 mb 0.00 in0.0 mm 0.00 in0.0 mm 0.00 in0.0 mm
12:15 AM 31.4°F-0.3°C 11.5°F-11.4°C 43% 7.0 mph W11.3 kmh W 15.0 mph24.1 kmh 29.57 in1001.4 mb 0.00 in0.0 mm 0.00 in0.0 mm 0.00 in0.0 mm
12:20 AM 31.0°F-0.6°C 11.7°F-11.3°C 44% 6.0 mph W9.7 kmh W 14.0 mph22.5 kmh 29.57 in1001.4 mb 0.00 in0.0 mm 0.00 in0.0 mm 0.00 in0.0 mm
12:25 AM 30.9°F-0.6°C 11.6°F-11.3°C 44% 7.0 mph WSW11.3 kmh WSW 12.0 mph19.3 kmh 29.57 in1001.4 mb 0.00 in0.0 mm 0.00 in0.0 mm 0.00 in0.0 mm
12:30 AM 50.5°F10.3°C 24.2°F-4.3°C 35% 7.4 mph E11.9 kmh E 9.0 mph14.5 kmh 29.61 in1002.7 mb 0.00 in0.0 mm 0.00 in0.0 mm 0.20 in5.1 mm
12:35 AM 51.0°F10.6°C 24.7°F-4.1°C 36% 7.4 mph E11.9 kmh E 8.9 mph14.3 kmh 29.62 in1003.0 mb 0.00 in0.0 mm 0.00 in0.0 mm 0.20 in5.1 mm
12:40 AM 51.4°F10.8°C 25.3°F-3.7°C 36% 7.3 mph E11.7 kmh E 8.8 mph14.2 kmh 29.63 in1003.4 mb 0.00 in0.0 mm 0.00 in0.0 mm 0.20 in5.1 mm
12:45 AM 51.8°F11.0°C 25.9°F-3.4°C 36% 7.3 mph E11.7 kmh E 8.8 mph14.2 kmh 29.64 in1003.7 mb 0.00 in0.0 mm 0.00 in0.0 mm 0.20 in5.1 mm
12:50 AM 52.3°F11.3°C 26.5°F-3.1°C 37% 7.2 mph E11.6 kmh E 8.7 mph14.0 kmh 29.65 in1004.1 mb 0.00 in0.0 mm 0.00 in0.0 mm 0.20 in5.1 mm
12:55 AM 52.7°F11.5°C 27.0°F-2.8°C 37% 7.2 mph E11.6 kmh E 8.7 mph14.0 kmh 29.66 in1004.4 mb 0.00 in0.0 mm 0.00 in0.0 mm 0.20 in5.1 mm
01:00 AM 53.1°F11.7°C 27.6°F-2.4°C 37% 7.2 mph E11.6 kmh E 8.6 mph13.8 kmh 29.67 in1004.7 mb 0.00 in0.0 mm 0.00 in0.0 mm 0.20 in5.1 mm
01:05 AM 30.9°F-0.6°C 11.6°F-11.3°C 44% 6.0 mph W9.7 kmh W 15.0 mph24.1 kmh 29.58 in1001.7 mb 0.00 in0.0 mm 0.00 in0.0 mm 0.00 in0.0 mm
01:10 AM 54.0°F12.2°C 28.8°F-1.8°C 38% 7.1 mph ESE11.4 kmh ESE 8.5 mph13.7 kmh 29.69 in1005.4 mb 0.00 in0.0 mm 0.00 in0.0 mm 0.20 in5.1 mm
01:15 AM 54.4°F12.4°C 29.3°F-1.5°C 38% 7.0 mph ESE11.3 kmh ESE 8.4 mph13.5 kmh 29.70 in1005.8 mb 0.00 in0.0 mm 0.00 in0.0 mm 0.20 in5.1 mm
01:20 AM 54.9°F12.7°C 29.9°F-1.2°C 38% 7.0 mph ESE11.3 kmh ESE 8.4 mph13.5 kmh 29.71 in1006.1 mb 0.00 in0.0 mm 0.00 in0.0 mm 0.20 in5.1 mm
01:25 AM 55.3°F12.9°C 30.5°F-0.8°C 39% 6.9 mph ESE11.1 kmh ESE 8.3 mph13.4 kmh 29.72 in1006.4 mb 0.00 in0.0 mm 0.00 in0.0 mm 0.20 in5.1 mm
01:30 AM 55.7°F13.2°C 31.1°F-0.5°C 39% 6.9 mph ESE11.1 kmh ESE 8.3 mph13.4 kmh 29.73 in1006.8 mb 0.00 in0.0 mm 0.00 in0.0 mm 0.20 in5.1 mm
01:35 AM 31.7°F-0.2°C 11.3°F-11.5°C 42% 5.0 mph WSW8.0 kmh WSW 12.0 mph19.3 kmh 29.57 in1001.4 mb 0.00 in0.0 mm 0.00 in0.0 mm 0.00 in0.0 mm
01:40 AM 31.7°F-0.2°C 11.3°F-11.5°C 42% 7.0 mph WSW11.3 kmh WSW 14.0 mph22.5 kmh 29.57 in1001.4 mb 0.00 in0.0 mm 0.00 in0.0 mm 0.00 in0.0 mm
01:45 AM 31.7°F-0.2°C 11.3°F-11.5°C 42% 7.0 mph SW11.3 kmh SW 16.0 mph25.7 kmh 29.57 in1001.4 mb 0.00 in0.0 mm 0.00 in0.0 mm 0.00 in0.0 mm
01:50 AM 57.3°F14.1°C 33.3°F0.7°C 40% 6.6 mph SE10.6 kmh SE 8.0 mph12.9 kmh 29.77 in1008.1 mb 0.00 in0.0 mm 0.00 in0.0 mm 0.20 in5.1 mm
01:55 AM 57.7°F14.3°C 33.9°F1.1°C 40% 6.6 mph SE10.6 kmh SE 7.9 mph12.7 kmh 29.78 in1008.5 mb 0.00 in0.0 mm 0.00 in0.0 mm 0.20 in5.1 mm
02:00 AM 31.1°F-0.5°C 11.8°F-11.2°C 44% 6.0 mph WSW9.7 kmh WSW 12.0 mph19.3 kmh 29.57 in1001.4 mb 0.00 in0.0 mm 0.00 in0.0 mm 0.00 in0.0 mm
02:05 AM 58.5°F14.7°C 35.0°F1.7°C 41% 6.5 mph SE10.5 kmh SE 7.8 mph12.6 kmh 29.80 in1009.1 mb 0.00 in0.0 mm 0.00 in0.0 mm 0.20 in5.1 mm
02:10 AM 31.2°F-0.4°C 11.3°F-11.5°C 43% 7.0 mph WSW11.3 kmh WSW 15.0 mph24.1 kmh 29.57 in1001.4 mb 0.00 in0.0 mm 0.00 in0.0 mm 0.00 in0.0 mm
02:15 AM 59.3°F15.2°C 36.0°F2.2°C 42% 6.4 mph SE10.3 kmh SE 7.7 mph12.4 kmh 29.82 in1009.8 mb 0.00 in0.0 mm 0.00 in0.0 mm 0.20 in5.1 mm
02:20 AM 59.7°F15.4°C 36.6°F2.6°C 42% 6.3 mph SE10.1 kmh SE 7.6 mph12.2 kmh 29.83 in1010.2 mb 0.00 in0.0 mm 0.00 in0.0 mm 0.20 in5.1 mm
02:25 AM 31.4°F-0.3°C 11.5°F-11.4°C 43% 7.0 mph W11.3 kmh W 20.0 mph32.2 kmh 29.56 in1001.0 mb 0.00 in0.0 mm 0.00 in0.0 mm 0.00 in0.0 mm
02:30 AM 60.5°F15.8°C 37.6°F3.1°C 43% 6.2 mph SE10.0 kmh SE 7.5 mph12.1 kmh 29.85 in1010.8 mb 0.00 in0.0 mm 0.00 in0.0 mm 0.20 in5.1 mm
02:35 AM 32.0°F0.0°C 11.0°F-11.7°C 41% 7.0 mph WSW11.3 kmh WSW 12.0 mph19.3 kmh 29.56 in1001.0 mb 0.00 in0.0 mm 0.00 in0.0 mm 0.00 in0.0 mm
02:40 AM 32.1°F0.1°C 11.1°F-11.6°C 41% 7.0 mph WSW11.3 kmh WSW 14.0 mph22.5 kmh 29.56 in1001.0 mb 0.00 in0.0 mm 0.00 in0.0 mm 0.00 in0.0 mm
02:45 AM 61.6°F16.4°C 39.2°F4.0°C 44% 6.1 mph SE9.8 kmh SE 7.3 mph11.7 kmh 29.89 in1012.2 mb 0.00 in0.0 mm 0.00 in0.0 mm 0.20 in5.1 mm
02:50 AM 61.9°F16.6°C 39.7°F4.3°C 44% 6.0 mph SE9.7 kmh SE 7.3 mph11.7 kmh 29.90 in1012.5 mb 0.00 in0.0 mm 0.00 in0.0 mm 0.20 in5.1 mm
02:55 AM 32.2°F0.1°C 11.2°F-11.6°C 41% 5.0 mph WSW8.0 kmh WSW 13.0 mph20.9 kmh 29.55 in1000.7 mb 0.00 in0.0 mm 0.00 in0.0 mm 0.00 in0.0 mm
03:00 AM 32.1°F0.1°C 10.5°F-11.9°C 40% 5.0 mph WSW8.0 kmh WSW 12.0 mph19.3 kmh 29.55 in1000.7 mb 0.00 in0.0 mm 0.00 in0.0 mm 0.00 in0.0 mm
03:05 AM 62.9°F17.2°C 41.2°F5.1°C 45% 5.9 mph SE9.5 kmh SE 7.1 mph11.4 kmh 29.93 in1013.5 mb 0.00 in0.0 mm 0.00 in0.0 mm 0.20 in5.1 mm
03:10 AM 31.8°F-0.1°C 10.3°F-12.1°C 40% 7.0 mph WSW11.3 kmh WSW 13.0 mph20.9 kmh 29.54 in1000.3 mb 0.00 in0.0 mm 0.00 in0.0 mm 0.00 in0.0 mm
03:15 AM 32.0°F0.0°C 10.4°F-12.0°C 40% 6.0 mph WSW9.7 kmh WSW 11.0 mph17.7 kmh 29.54 in1000.3 mb 0.00 in0.0 mm 0.00 in0.0 mm 0.00 in0.0 mm
03:20 AM 63.9°F17.7°C 42.6°F5.9°C 46% 5.7 mph SSE9.2 kmh SSE 6.9 mph11.1 kmh 29.96 in1014.6 mb 0.00 in0.0 mm 0.00 in0.0 mm 0.20 in5.1 mm
03:25 AM 64.2°F17.9°C 43.1°F6.2°C 46% 5.6 mph SSE9.0 kmh SSE 6.8 mph10.9 kmh 29.97 in1014.9 mb 0.00 in0.0 mm 0.00 in0.0 mm 0.20 in5.1 mm
03:30 AM 31.9°F-0.1°C 10.4°F-12.0°C 40% 8.0 mph WSW12.9 kmh WSW 14.0 mph22.5 kmh 29.54 in1000.3 mb 0.00 in0.0 mm 0.00 in0.0 mm 0.00 in0.0 mm
03:35 AM 64.8°F18.2°C 44.0°F6.7°C 47% 5.5 mph SSE8.9 kmh SSE 6.7 mph10.8 kmh 29.99 in1015.6 mb 0.00 in0.0 mm 0.00 in0.0 mm 0.20 in5.1 mm
03:40 AM 65.1°F18.4°C 44.4°F6.9°C 47% 5.5 mph SSE8.9 kmh SSE 6.6 mph10.6 kmh 30.00 in1015.9 mb 0.00 in0.0 mm 0.00 in0.0 mm 0.20 in5.1 mm
03:45 AM 65.4°F18.6°C 44.9°F7.2°C 47% 5.4 mph S8.7 kmh S 6.5 mph10.5 kmh 30.02 in1016.6 mb 0.00 in0.0 mm 0.00 in0.0 mm 0.20 in5.1 mm
03:50 AM 65.7°F18.7°C 45.3°F7.4°C 48% 5.4 mph S8.7 kmh S 6.5 mph10.5 kmh 30.03 in1016.9 mb 0.00 in0.0 mm 0.00 in0.0 mm 0.20 in5.1 mm
03:55 AM 65.9°F18.8°C 45.7°F7.6°C 48% 5.3 mph S8.5 kmh S 6.4 mph10.3 kmh 30.04 in1017.3 mb 0.00 in0.0 mm 0.00 in0.0 mm 0.20 in5.1 mm
04:00 AM 66.2°F19.0°C 46.2°F7.9°C 48% 5.3 mph S8.5 kmh S 6.3 mph10.1 kmh 30.05 in1017.6 mb 0.00 in0.0 mm 0.00 in0.0 mm 0.20 in5.1 mm
04:05 AM 32.2°F0.1°C 10.1°F-12.2°C 39% 8.0 mph W12.9 kmh W 16.0 mph25.7 kmh 29.53 in1000.0 mb 0.00 in0.0 mm 0.00 in0.0 mm 0.00 in0.0 mm
04:10 AM 32.2°F0.1°C 10.1°F-12.2°C 39% 8.0 mph WSW12.9 kmh WSW 16.0 mph25.7 kmh 29.52 in999.7 mb 0.00 in0.0 mm 0.00 in0.0 mm 0.00 in0.0 mm
04:15 AM 32.3°F0.2°C 9.6°F-12.4°C 38% 8.0 mph WSW12.9 kmh WSW 15.0 mph24.1 kmh 29.53 in1000.0 mb 0.00 in0.0 mm 0.00 in0.0 mm 0.00 in0.0 mm
04:20 AM 32.5°F0.3°C 9.7°F-12.4°C 38% 9.0 mph WSW14.5 kmh WSW 15.0 mph24.1 kmh 29.53 in1000.0 mb 0.00 in0.0 mm 0.00 in0.0 mm 0.00 in0.0 mm
04:25 AM 32.4°F0.2°C 9.7°F-12.4°C 38% 9.0 mph WSW14.5 kmh WSW 13.0 mph20.9 kmh 29.53 in1000.0 mb 0.00 in0.0 mm 0.00 in0.0 mm 0.00 in0.0 mm
04:30 AM 32.3°F0.2°C 9.6°F-12.4°C 38% 8.0 mph W12.9 kmh W 13.0 mph20.9 kmh 29.53 in1000.0 mb 0.00 in0.0 mm 0.00 in0.0 mm 0.00 in0.0 mm
04:35 AM 67.8°F19.9°C 48.8°F9.3°C 51% 4.9 mph S7.9 kmh S 5.9 mph9.5 kmh 30.12 in1020.0 mb 0.00 in0.0 mm 0.00 in0.0 mm 0.20 in5.1 mm
04:40 AM 68.0°F20.0°C 49.2°F9.6°C 51% 4.8 mph S7.7 kmh S 5.8 mph9.3 kmh 30.14 in1020.7 mb 0.00 in0.0 mm 0.00 in0.0 mm 0.20 in5.1 mm
04:45 AM 68.2°F20.1°C 49.5°F9.7°C 51% 4.8 mph S7.7 kmh S 5.8 mph9.3 kmh 30.15 in1021.0 mb 0.00 in0.0 mm 0.00 in0.0 mm 0.20 in5.1 mm
04:50 AM 68.3°F20.2°C 49.9°F9.9°C 52% 4.7 mph S7.6 kmh S 5.7 mph9.2 kmh 30.16 in1021.3 mb 0.00 in0.0 mm 0.00 in0.0 mm 0.20 in5.1 mm
04:55 AM 32.3°F0.2°C 9.6°F-12.4°C 38% 9.0 mph WSW14.5 kmh WSW 21.0 mph33.8 kmh 29.52 in999.7 mb 0.00 in0.0 mm 0.00 in0.0 mm 0.00 in0.0 mm
05:00 AM 68.7°F20.4°C 50.5°F10.3°C 52% 4.6 mph S7.4 kmh S 5.6 mph9.0 kmh 30.18 in1022.0 mb 0.00 in0.0 mm 0.00 in0.0 mm 0.20 in5.1 mm
05:05 AM 32.6°F0.3°C 9.2°F-12.7°C 37% 10.0 mph WSW16.1 kmh WSW 15.0 mph24.1 kmh 29.52 in999.7 mb 0.00 in0.0 mm 0.00 in0.0 mm 0.00 in0.0 mm
05:10 AM 69.0°F20.6°C 51.1°F10.6°C 53% 4.5 mph SSW7.2 kmh SSW 5.4 mph8.7 kmh 30.20 in1022.7 mb 0.00 in0.0 mm 0.00 in0.0 mm 0.20 in5.1 mm
05:15 AM 69.1°F20.6°C 51.4°F10.8°C 53% 4.4 mph SSW7.1 kmh SSW 5.4 mph8.7 kmh 30.21 in1023.0 mb 0.00 in0.0 mm 0.00 in0.0 mm 0.20 in5.1 mm
05:20 AM 69.2°F20.7°C 51.7°F10.9°C 54% 4.4 mph SSW7.1 kmh SSW 5.3 mph8.5 kmh 30.22 in1023.4 mb 0.00 in0.0 mm 0.00 in0.0 mm 0.20 in5.1 mm
05:25 AM 69.3°F20.7°C 52.0°F11.1°C 54% 4.3 mph SSW6.9 kmh SSW 5.2 mph8.4 kmh 30.23 in1023.7 mb 0.00 in0.0 mm 0.00 in0.0 mm 0.20 in5.1 mm
05:30 AM 69.5°F20.8°C 52.2°F11.2°C 54% 4.3 mph SSW6.9 kmh SSW 5.2 mph8.4 kmh 30.24 in1024.0 mb 0.00 in0.0 mm 0.00 in0.0 mm 0.20 in5.1 mm
05:35 AM 69.5°F20.8°C 52.5°F11.4°C 55% 4.2 mph SSW6.8 kmh SSW 5.1 mph8.2 kmh 30.25 in1024.4 mb 0.00 in0.0 mm 0.00 in0.0 mm 0.20 in5.1 mm
05:40 AM 32.7°F0.4°C 9.3°F-12.6°C 37% 8.0 mph W12.9 kmh W 14.0 mph22.5 kmh 29.52 in999.7 mb 0.00 in0.0 mm 0.00 in0.0 mm 0.00 in0.0 mm
05:45 AM 33.0°F0.6°C 9.0°F-12.8°C 36% 8.0 mph WSW12.9 kmh WSW 16.0 mph25.7 kmh 29.52 in999.7 mb 0.00 in0.0 mm 0.00 in0.0 mm 0.00 in0.0 mm
05:50 AM 32.9°F0.5°C 8.9°F-12.8°C 36% 10.0 mph WSW16.1 kmh WSW 22.0 mph35.4 kmh 29.52 in999.7 mb 0.00 in0.0 mm 0.00 in0.0 mm 0.00 in0.0 mm
05:55 AM 32.7°F0.4°C 9.3°F-12.6°C 37% 7.0 mph WSW11.3 kmh WSW 15.0 mph24.1 kmh 29.52 in999.7 mb 0.00 in0.0 mm 0.00 in0.0 mm 0.00 in0.0 mm
06:00 AM 32.7°F0.4°C 8.7°F-12.9°C 36% 8.0 mph WSW12.9 kmh WSW 18.0 mph29.0 kmh 29.51 in999.3 mb 0.00 in0.0 mm 0.00 in0.0 mm 0.00 in0.0 mm
06:05 AM 32.8°F0.4°C 8.8°F-12.9°C 36% 9.0 mph WSW14.5 kmh WSW 17.0 mph27.4 kmh 29.52 in999.7 mb 0.00 in0.0 mm 0.00 in0.0 mm 0.00 in0.0 mm
06:10 AM 32.9°F0.5°C 8.9°F-12.8°C 36% 8.0 mph WSW12.9 kmh WSW 17.0 mph27.4 kmh 29.52 in999.7 mb 0.00 in0.0 mm 0.00 in0.0 mm 0.00 in0.0 mm
06:15 AM 70.0°F21.1°C 54.1°F12.3°C 57% 3.8 mph SW6.1 kmh SW 4.6 mph7.4 kmh 30.34 in1027.4 mb 0.00 in0.0 mm 0.00 in0.0 mm 0.20 in5.1 mm
06:20 AM 33.1°F0.6°C 8.5°F-13.1°C 35% 8.0 mph WSW12.9 kmh WSW 23.0 mph37.0 kmh 29.52 in999.7 mb 0.00 in0.0 mm 0.00 in0.0 mm 0.00 in0.0 mm
06:25 AM 33.1°F0.6°C 8.5°F-13.1°C 35% 6.0 mph WSW9.7 kmh WSW 12.0 mph19.3 kmh 29.52 in999.7 mb 0.00 in0.0 mm 0.00 in0.0 mm 0.00 in0.0 mm
06:30 AM 33.0°F0.6°C 8.4°F-13.1°C 35% 8.0 mph WSW12.9 kmh WSW 13.0 mph20.9 kmh 29.51 in999.3 mb 0.00 in0.0 mm 0.00 in0.0 mm 0.00 in0.0 mm
06:35 AM 70.0°F21.1°C 54.7°F12.6°C 58% 3.6 mph SW5.8 kmh SW 4.3 mph6.9 kmh 30.38 in1028.8 mb 0.00 in0.0 mm 0.00 in0.0 mm 0.20 in5.1 mm
06:40 AM 69.9°F21.1°C 54.9°F12.7°C 59% 3.5 mph SW5.6 kmh SW 4.3 mph6.9 kmh 30.39 in1029.1 mb 0.00 in0.0 mm 0.00 in0.0 mm 0.20 in5.1 mm
06:45 AM 33.4°F0.8°C 8.1°F-13.3°C 34% 7.0 mph WSW11.3 kmh WSW 11.0 mph17.7 kmh 29.51 in999.3 mb 0.00 in0.0 mm 0.00 in0.0 mm 0.00 in0.0 mm
06:50 AM 69.9°F21.1°C 55.1°F12.8°C 59% 3.4 mph SW5.5 kmh SW 4.1 mph6.6 kmh 30.41 in1029.8 mb 0.00 in0.0 mm 0.00 in0.0 mm 0.20 in5.1 mm
06:55 AM 69.8°F21.0°C 55.2°F12.9°C 60% 3.4 mph SW5.5 kmh SW 4.1 mph6.6 kmh 30.42 in1030.1 mb 0.00 in0.0 mm 0.00 in0.0 mm 0.20 in5.1 mm
07:00 AM 69.8°F21.0°C 55.2°F12.9°C 60% 3.3 mph WSW5.3 kmh WSW 4.0 mph6.4 kmh 30.43 in1030.5 mb 0.00 in0.0 mm 0.00 in0.0 mm 0.20 in5.1 mm
07:05 AM 33.5°F0.8°C 8.2°F-13.2°C 34% 6.0 mph W9.7 kmh W 15.0 mph24.1 kmh 29.51 in999.3 mb 0.00 in0.0 mm 0.00 in0.0 mm 0.00 in0.0 mm
07:10 AM 33.0°F0.6°C 7.7°F-13.5°C 34% 5.0 mph W8.0 kmh W 11.0 mph17.7 kmh 29.51 in999.3 mb 0.00 in0.0 mm 0.00 in0.0 mm 0.00 in0.0 mm
07:15 AM 69.5°F20.8°C 55.4°F13.0°C 61% 3.2 mph WSW5.1 kmh WSW 3.8 mph6.1 kmh 30.46 in1031.5 mb 0.00 in0.0 mm 0.00 in0.0 mm 0.20 in5.1 mm
07:20 AM 32.9°F0.5°C 8.9°F-12.8°C 36% 6.0 mph WSW9.7 kmh WSW 13.0 mph20.9 kmh 29.51 in999.3 mb 0.00 in0.0 mm 0.00 in0.0 mm 0.00 in0.0 mm
07:25 AM 32.9°F0.5°C 8.3°F-13.2°C 35% 8.0 mph WSW12.9 kmh WSW 13.0 mph20.9 kmh 29.51 in999.3 mb 0.00 in0.0 mm 0.00 in0.0 mm 0.00 in0.0 mm
07:30 AM 33.2°F0.7°C 7.9°F-13.4°C 34% 8.0 mph WSW12.9 kmh WSW 17.0 mph27.4 kmh 29.51 in999.3 mb 0.00 in0.0 mm 0.00 in0.0 mm 0.00 in0.0 mm
07:35 AM 33.2°F0.7°C 7.9°F-13.4°C 34% 6.0 mph W9.7 kmh W 10.0 mph16.1 kmh 29.51 in999.3 mb 0.00 in0.0 mm 0.00 in0.0 mm 0.00 in0.0 mm
07:40 AM 33.5°F0.8°C 7.5°F-13.6°C 33% 7.0 mph WNW11.3 kmh WNW 15.0 mph24.1 kmh 29.51 in999.3 mb 0.00 in0.0 mm 0.00 in0.0 mm 0.00 in0.0 mm
07:45 AM 33.8°F1.0°C 7.8°F-13.4°C 33% 6.0 mph WNW9.7 kmh WNW 11.0 mph17.7 kmh 29.51 in999.3 mb 0.00 in0.0 mm 0.00 in0.0 mm 0.00 in0.0 mm
07:50 AM 34.2°F1.2°C 7.5°F-13.6°C 32% 7.0 mph WNW11.3 kmh WNW 19.0 mph30.6 kmh 29.51 in999.3 mb 0.00 in0.0 mm 0.00 in0.0 mm 0.00 in0.0 mm
07:55 AM 34.4°F1.3°C 7.6°F-13.6°C 32% 7.0 mph W11.3 kmh W 16.0 mph25.7 kmh 29.51 in999.3 mb 0.00 in0.0 mm 0.00 in0.0 mm 0.00 in0.0 mm
08:00 AM 34.6°F1.4°C 7.1°F-13.8°C 31% 6.0 mph W9.7 kmh W 11.0 mph17.7 kmh 29.51 in999.3 mb 0.00 in0.0 mm 0.00 in0.0 mm 0.00 in0.0 mm
08:05 AM 34.8°F1.6°C 7.3°F-13.7°C 31% 6.0 mph WNW9.7 kmh WNW 15.0 mph24.1 kmh 29.51 in999.3 mb 0.00 in0.0 mm 0.00 in0.0 mm 0.00 in0.0 mm
08:10 AM 34.9°F1.6°C 7.4°F-13.7°C 31% 7.0 mph W11.3 kmh W 15.0 mph24.1 kmh 29.51 in999.3 mb 0.00 in0.0 mm 0.00 in0.0 mm 0.00 in0.0 mm
08:15 AM 35.0°F1.7°C 7.5°F-13.6°C 31% 6.0 mph W9.7 kmh W 13.0 mph20.9 kmh 29.50 in999.0 mb 0.00 in0.0 mm 0.00 in0.0 mm 0.00 in0.0 mm
08:20 AM 35.2°F1.8°C 7.6°F-13.6°C 31% 7.0 mph W11.3 kmh W 14.0 mph22.5 kmh 29.50 in999.0 mb 0.00 in0.0 mm 0.00 in0.0 mm 0.00 in0.0 mm
08:25 AM 35.3°F1.8°C 7.0°F-13.9°C 30% 7.0 mph W11.3 kmh W 13.0 mph20.9 kmh 29.50 in999.0 mb 0.00 in0.0 mm 0.00 in0.0 mm 0.00 in0.0 mm
08:30 AM 35.5°F1.9°C 7.2°F-13.8°C 30% 5.0 mph WSW8.0 kmh WSW 11.0 mph17.7 kmh 29.51 in999.3 mb 0.00 in0.0 mm 0.00 in0.0 mm 0.00 in0.0 mm
08:35 AM 35.9°F2.2°C 6.8°F-14.0°C 29% 7.0 mph WSW11.3 kmh WSW 13.0 mph20.9 kmh 29.50 in999.0 mb 0.00 in0.0 mm 0.00 in0.0 mm 0.00 in0.0 mm
08:40 AM 36.6°F2.6°C 5.8°F-14.6°C 27% 7.0 mph SW11.3 kmh SW 13.0 mph20.9 kmh 29.50 in999.0 mb 0.00 in0.0 mm 0.00 in0.0 mm 0.00 in0.0 mm
08:45 AM 36.9°F2.7°C 6.1°F-14.4°C 27% 7.0 mph WSW11.3 kmh WSW 16.0 mph25.7 kmh 29.50 in999.0 mb 0.00 in0.0 mm 0.00 in0.0 mm 0.00 in0.0 mm
08:50 AM 37.1°F2.8°C 6.3°F-14.3°C 27% 5.0 mph W8.0 kmh W 11.0 mph17.7 kmh 29.50 in999.0 mb 0.00 in0.0 mm 0.00 in0.0 mm 0.00 in0.0 mm
08:55 AM 37.2°F2.9°C 6.3°F-14.3°C 27% 5.0 mph WSW8.0 kmh WSW 10.0 mph16.1 kmh 29.50 in999.0 mb 0.00 in0.0 mm 0.00 in0.0 mm 0.00 in0.0 mm
09:00 AM 37.3°F2.9°C 6.4°F-14.2°C 27% 7.0 mph SW11.3 kmh SW 12.0 mph19.3 kmh 29.50 in999.0 mb 0.00 in0.0 mm 0.00 in0.0 mm 0.00 in0.0 mm
09:05 AM 37.8°F3.2°C 6.0°F-14.4°C 26% 7.0 mph SW11.3 kmh SW 16.0 mph25.7 kmh 29.51 in999.3 mb 0.00 in0.0 mm 0.00 in0.0 mm 0.00 in0.0 mm
09:10 AM 38.3°F3.5°C 5.6°F-14.7°C 25% 8.0 mph SW12.9 kmh SW 18.0 mph29.0 kmh 29.51 in999.3 mb 0.00 in0.0 mm 0.00 in0.0 mm 0.00 in0.0 mm
09:15 AM 38.9°F3.8°C 6.1°F-14.4°C 25% 8.0 mph SW12.9 kmh SW 17.0 mph27.4 kmh 29.51 in999.3 mb 0.00 in0.0 mm 0.00 in0.0 mm 0.00 in0.0 mm
09:20 AM 39.4°F4.1°C 5.6°F-14.7°C 24% 6.0 mph WSW9.7 kmh WSW 14.0 mph22.5 kmh 29.51 in999.3 mb 0.00 in0.0 mm 0.00 in0.0 mm 0.00 in0.0 mm
09:25 AM 39.9°F4.4°C 5.1°F-14.9°C 23% 6.0 mph W9.7 kmh W 13.0 mph20.9 kmh 29.50 in999.0 mb 0.00 in0.0 mm 0.00 in0.0 mm 0.00 in0.0 mm
09:30 AM 40.2°F4.6°C 5.4°F-14.8°C 23% 7.0 mph W11.3 kmh W 13.0 mph20.9 kmh 29.50 in999.0 mb 0.00 in0.0 mm 0.00 in0.0 mm 0.00 in0.0 mm
09:35 AM 40.6°F4.8°C 4.8°F-15.1°C 22% 6.0 mph W9.7 kmh W 12.0 mph19.3 kmh 29.50 in999.0 mb 0.00 in0.0 mm 0.00 in0.0 mm 0.00 in0.0 mm
09:40 AM 40.9°F4.9°C 5.0°F-15.0°C 22% 4.0 mph W6.4 kmh W 8.0 mph12.9 kmh 29.50 in999.0 mb 0.00 in0.0 mm 0.00 in0.0 mm 0.00 in0.0 mm
09:45 AM 41.1°F5.1°C 5.2°F-14.9°C 22% 4.0 mph W6.4 kmh W 9.0 mph14.5 kmh 29.50 in999.0 mb 0.00 in0.0 mm 0.00 in0.0 mm 0.00 in0.0 mm
09:50 AM 41.4°F5.2°C 5.4°F-14.8°C 22% 2.0 mph W3.2 kmh W 7.0 mph11.3 kmh 29.50 in999.0 mb 0.00 in0.0 mm 0.00 in0.0 mm 0.00 in0.0 mm
09:55 AM 41.7°F5.4°C 5.7°F-14.6°C 22% 2.0 mph W3.2 kmh W 6.0 mph9.7 kmh 29.50 in999.0 mb 0.00 in0.0 mm 0.00 in0.0 mm 0.00 in0.0 mm
10:00 AM 42.1°F5.6°C 5.0°F-15.0°C 21% 3.0 mph NW4.8 kmh NW 8.0 mph12.9 kmh 29.50 in999.0 mb 0.00 in0.0 mm 0.00 in0.0 mm 0.00 in0.0 mm
10:05 AM 42.4°F5.8°C 5.3°F-14.8°C 21% 4.0 mph W6.4 kmh W 9.0 mph14.5 kmh 29.49 in998.6 mb 0.00 in0.0 mm 0.00 in0.0 mm 0.00 in0.0 mm
10:10 AM 42.5°F5.8°C 5.4°F-14.8°C 21% 3.0 mph WSW4.8 kmh WSW 11.0 mph17.7 kmh 29.49 in998.6 mb 0.00 in0.0 mm 0.00 in0.0 mm 0.00 in0.0 mm
10:15 AM 42.6°F5.9°C 5.4°F-14.8°C 21% 4.0 mph NW6.4 kmh NW 12.0 mph19.3 kmh 29.49 in998.6 mb 0.00 in0.0 mm 0.00 in0.0 mm 0.00 in0.0 mm
10:20 AM 42.9°F6.1°C 4.6°F-15.2°C 20% 7.0 mph NNW11.3 kmh NNW 16.0 mph25.7 kmh 29.48 in998.3 mb 0.00 in0.0 mm 0.00 in0.0 mm 0.00 in0.0 mm
10:25 AM 43.2°F6.2°C 4.9°F-15.1°C 20% 4.0 mph WNW6.4 kmh WNW 11.0 mph17.7 kmh 29.48 in998.3 mb 0.00 in0.0 mm 0.00 in0.0 mm 0.00 in0.0 mm
10:30 AM 43.4°F6.3°C 5.0°F-15.0°C 20% 7.0 mph NW11.3 kmh NW 13.0 mph20.9 kmh 29.48 in998.3 mb 0.00 in0.0 mm 0.00 in0.0 mm 0.00 in0.0 mm
10:35 AM 43.4°F6.3°C 3.9°F-15.6°C 19% 5.0 mph W8.0 kmh W 17.0 mph27.4 kmh 29.48 in998.3 mb 0.00 in0.0 mm 0.00 in0.0 mm 0.00 in0.0 mm
10:40 AM 43.7°F6.5°C 3.0°F-16.1°C 18% 7.0 mph WNW11.3 kmh WNW 15.0 mph24.1 kmh 29.48 in998.3 mb 0.00 in0.0 mm 0.00 in0.0 mm 0.00 in0.0 mm
10:45 AM 43.6°F6.4°C 2.9°F-16.2°C 18% 7.0 mph WNW11.3 kmh WNW 15.0 mph24.1 kmh 29.48 in998.3 mb 0.00 in0.0 mm 0.00 in0.0 mm 0.00 in0.0 mm
10:50 AM 43.9°F6.6°C 4.3°F-15.4°C 19% 7.0 mph NW11.3 kmh NW 13.0 mph20.9 kmh 29.47 in998.0 mb 0.00 in0.0 mm 0.00 in0.0 mm 0.00 in0.0 mm
10:55 AM 44.0°F6.7°C 4.4°F-15.3°C 19% 6.0 mph WNW9.7 kmh WNW 12.0 mph19.3 kmh 29.47 in998.0 mb 0.00 in0.0 mm 0.00 in0.0 mm 0.00 in0.0 mm
11:00 AM 44.3°F6.8°C 4.7°F-15.2°C 19% 4.0 mph WNW6.4 kmh WNW 11.0 mph17.7 kmh 29.47 in998.0 mb 0.00 in0.0 mm 0.00 in0.0 mm 0.00 in0.0 mm
11:05 AM 44.5°F6.9°C 3.7°F-15.7°C 18% 7.0 mph NNW11.3 kmh NNW 18.0 mph29.0 kmh 29.47 in998.0 mb 0.00 in0.0 mm 0.00 in0.0 mm 0.00 in0.0 mm
11:10 AM 44.9°F7.2°C 6.3°F-14.3°C 20% 2.0 mph W3.2 kmh W 9.0 mph14.5 kmh 29.47 in998.0 mb 0.00 in0.0 mm 0.00 in0.0 mm 0.00 in0.0 mm
11:15 AM 45.0°F7.2°C 7.4°F-13.7°C 21% 4.0 mph W6.4 kmh W 8.0 mph12.9 kmh 29.46 in997.6 mb 0.00 in0.0 mm 0.00 in0.0 mm 0.00 in0.0 mm
11:20 AM 44.7°F7.1°C 8.2°F-13.2°C 22% 4.0 mph W6.4 kmh W 14.0 mph22.5 kmh 29.46 in997.6 mb 0.00 in0.0 mm 0.00 in0.0 mm 0.00 in0.0 mm
11:25 AM 44.7°F7.1°C 6.1°F-14.4°C 20% 2.0 mph W3.2 kmh W 7.0 mph11.3 kmh 29.46 in997.6 mb 0.00 in0.0 mm 0.00 in0.0 mm 0.00 in0.0 mm
11:30 AM 45.2°F7.3°C 6.5°F-14.2°C 20% 4.0 mph SSW6.4 kmh SSW 8.0 mph12.9 kmh 29.46 in997.6 mb 0.00 in0.0 mm 0.00 in0.0 mm 0.00 in0.0 mm
11:35 AM 45.4°F7.4°C 7.8°F-13.4°C 21% 4.0 mph W6.4 kmh W 8.0 mph12.9 kmh 29.46 in997.6 mb 0.00 in0.0 mm 0.00 in0.0 mm 0.00 in0.0 mm
11:40 AM 45.1°F7.3°C 6.5°F-14.2°C 20% 4.0 mph WSW6.4 kmh WSW 11.0 mph17.7 kmh 29.45 in997.3 mb 0.00 in0.0 mm 0.00 in0.0 mm 0.00 in0.0 mm
11:45 AM 45.0°F7.2°C 6.4°F-14.2°C 20% 4.0 mph W6.4 kmh W 11.0 mph17.7 kmh 29.45 in997.3 mb 0.00 in0.0 mm 0.00 in0.0 mm 0.00 in0.0 mm
11:50 AM 44.9°F7.2°C 6.3°F-14.3°C 20% 6.0 mph WSW9.7 kmh WSW 14.0 mph22.5 kmh 29.44 in997.0 mb 0.00 in0.0 mm 0.00 in0.0 mm 0.00 in0.0 mm
11:55 AM 44.7°F7.1°C 7.2°F-13.8°C 21% 6.0 mph WSW9.7 kmh WSW 13.0 mph20.9 kmh 29.44 in997.0 mb 0.00 in0.0 mm 0.00 in0.0 mm 0.00 in0.0 mm
12:00 PM 44.7°F7.1°C 7.2°F-13.8°C 21% 5.0 mph W8.0 kmh W 12.0 mph19.3 kmh 29.44 in997.0 mb 0.00 in0.0 mm 0.00 in0.0 mm 0.00 in0.0 mm
12:05 PM 44.9°F7.2°C 7.4°F-13.7°C 21% 5.0 mph WSW8.0 kmh WSW 11.0 mph17.7 kmh 29.43 in996.6 mb 0.00 in0.0 mm 0.00 in0.0 mm 0.00 in0.0 mm
12:10 PM 44.9°F7.2°C 6.3°F-14.3°C 20% 6.0 mph WSW9.7 kmh WSW 10.0 mph16.1 kmh 29.43 in996.6 mb 0.00 in0.0 mm 0.00 in0.0 mm 0.00 in0.0 mm
12:15 PM 45.1°F7.3°C 6.5°F-14.2°C 20% 5.0 mph SW8.0 kmh SW 9.0 mph14.5 kmh 29.42 in996.3 mb 0.00 in0.0 mm 0.00 in0.0 mm 0.00 in0.0 mm
12:20 PM 45.4°F7.4°C 6.7°F-14.1°C 20% 4.0 mph SW6.4 kmh SW 8.0 mph12.9 kmh 29.42 in996.3 mb 0.00 in0.0 mm 0.00 in0.0 mm 0.00 in0.0 mm
12:25 PM 45.6°F7.6°C 6.9°F-13.9°C 20% 4.0 mph W6.4 kmh W 9.0 mph14.5 kmh 29.42 in996.3 mb 0.00 in0.0 mm 0.00 in0.0 mm 0.00 in0.0 mm
12:30 PM 45.8°F7.7°C 7.0°F-13.9°C 20% 5.0 mph WSW8.0 kmh WSW 9.0 mph14.5 kmh 29.41 in995.9 mb 0.00 in0.0 mm 0.00 in0.0 mm 0.00 in0.0 mm
12:35 PM 46.1°F7.8°C 7.3°F-13.7°C 20% 3.0 mph SW4.8 kmh SW 6.0 mph9.7 kmh 29.41 in995.9 mb 0.00 in0.0 mm 0.00 in0.0 mm 0.00 in0.0 mm
12:40 PM 46.6°F8.1°C 7.7°F-13.5°C 20% 4.0 mph SW6.4 kmh SW 9.0 mph14.5 kmh 29.40 in995.6 mb 0.00 in0.0 mm 0.00 in0.0 mm 0.00 in0.0 mm
12:45 PM 46.9°F8.3°C 8.0°F-13.3°C 20% 4.0 mph SSW6.4 kmh SSW 9.0 mph14.5 kmh 29.40 in995.6 mb 0.00 in0.0 mm 0.00 in0.0 mm 0.00 in0.0 mm
12:50 PM 46.9°F8.3°C 6.8°F-14.0°C 19% 4.0 mph SW6.4 kmh SW 13.0 mph20.9 kmh 29.40 in995.6 mb 0.00 in0.0 mm 0.00 in0.0 mm 0.00 in0.0 mm
12:55 PM 47.2°F8.4°C 5.9°F-14.5°C 18% 2.0 mph SW3.2 kmh SW 6.0 mph9.7 kmh 29.39 in995.3 mb 0.00 in0.0 mm 0.00 in0.0 mm 0.00 in0.0 mm
01:00 PM 47.5°F8.6°C 6.1°F-14.4°C 18% 3.0 mph SW4.8 kmh SW 8.0 mph12.9 kmh 29.39 in995.3 mb 0.00 in0.0 mm 0.00 in0.0 mm 0.00 in0.0 mm
01:05 PM 47.5°F8.6°C 6.1°F-14.4°C 18% 5.0 mph SSW8.0 kmh SSW 9.0 mph14.5 kmh 29.39 in995.3 mb 0.00 in0.0 mm 0.00 in0.0 mm 0.00 in0.0 mm
01:10 PM 47.8°F8.8°C 7.6°F-13.6°C 19% 4.0 mph SW6.4 kmh SW 9.0 mph14.5 kmh 29.39 in995.3 mb 0.00 in0.0 mm 0.00 in0.0 mm 0.00 in0.0 mm
01:15 PM 47.4°F8.6°C 7.2°F-13.8°C 19% 6.0 mph SW9.7 kmh SW 10.0 mph16.1 kmh 29.39 in995.3 mb 0.00 in0.0 mm 0.00 in0.0 mm 0.00 in0.0 mm
01:20 PM 47.7°F8.7°C 7.5°F-13.6°C 19% 5.0 mph SW8.0 kmh SW 10.0 mph16.1 kmh 29.39 in995.3 mb 0.00 in0.0 mm 0.00 in0.0 mm 0.00 in0.0 mm
01:25 PM 47.0°F8.3°C 6.9°F-13.9°C 19% 6.0 mph SW9.7 kmh SW 11.0 mph17.7 kmh 29.38 in994.9 mb 0.00 in0.0 mm 0.00 in0.0 mm 0.00 in0.0 mm
01:30 PM 47.0°F8.3°C 6.9°F-13.9°C 19% 4.0 mph SW6.4 kmh SW 9.0 mph14.5 kmh 29.39 in995.3 mb 0.00 in0.0 mm 0.00 in0.0 mm 0.00 in0.0 mm
01:35 PM 46.9°F8.3°C 6.8°F-14.0°C 19% 4.0 mph WSW6.4 kmh WSW 9.0 mph14.5 kmh 29.38 in994.9 mb 0.00 in0.0 mm 0.00 in0.0 mm 0.00 in0.0 mm
01:40 PM 46.8°F8.2°C 7.9°F-13.4°C 20% 7.0 mph SSW11.3 kmh SSW 12.0 mph19.3 kmh 29.38 in994.9 mb 0.00 in0.0 mm 0.00 in0.0 mm 0.00 in0.0 mm
01:45 PM 46.9°F8.3°C 8.0°F-13.3°C 20% 6.0 mph SW9.7 kmh SW 14.0 mph22.5 kmh 29.38 in994.9 mb 0.00 in0.0 mm 0.00 in0.0 mm 0.00 in0.0 mm
01:50 PM 46.3°F7.9°C 7.5°F-13.6°C 20% 8.0 mph SW12.9 kmh SW 14.0 mph22.5 kmh 29.38 in994.9 mb 0.00 in0.0 mm 0.00 in0.0 mm 0.00 in0.0 mm
01:55 PM 46.5°F8.1°C 8.7°F-12.9°C 21% 5.0 mph SW8.0 kmh SW 10.0 mph16.1 kmh 29.38 in994.9 mb 0.00 in0.0 mm 0.00 in0.0 mm 0.00 in0.0 mm
02:00 PM 46.4°F8.0°C 8.6°F-13.0°C 21% 7.0 mph SW11.3 kmh SW 15.0 mph24.1 kmh 29.38 in994.9 mb 0.00 in0.0 mm 0.00 in0.0 mm 0.00 in0.0 mm
02:05 PM 46.0°F7.8°C 8.3°F-13.2°C 21% 5.0 mph WSW8.0 kmh WSW 10.0 mph16.1 kmh 29.38 in994.9 mb 0.00 in0.0 mm 0.00 in0.0 mm 0.00 in0.0 mm
02:10 PM 46.3°F7.9°C 6.3°F-14.3°C 19% 4.0 mph WSW6.4 kmh WSW 9.0 mph14.5 kmh 29.38 in994.9 mb 0.00 in0.0 mm 0.00 in0.0 mm 0.00 in0.0 mm
02:15 PM 46.5°F8.1°C 7.6°F-13.6°C 20% 4.0 mph SW6.4 kmh SW 8.0 mph12.9 kmh 29.38 in994.9 mb 0.00 in0.0 mm 0.00 in0.0 mm 0.00 in0.0 mm
02:20 PM 46.6°F8.1°C 6.6°F-14.1°C 19% 3.0 mph W4.8 kmh W 9.0 mph14.5 kmh 29.38 in994.9 mb 0.00 in0.0 mm 0.00 in0.0 mm 0.00 in0.0 mm
02:25 PM 46.7°F8.2°C 8.9°F-12.8°C 21% 5.0 mph WSW8.0 kmh WSW 13.0 mph20.9 kmh 29.38 in994.9 mb 0.00 in0.0 mm 0.00 in0.0 mm 0.00 in0.0 mm
02:30 PM 46.6°F8.1°C 7.7°F-13.5°C 20% 5.0 mph SW8.0 kmh SW 10.0 mph16.1 kmh 29.38 in994.9 mb 0.00 in0.0 mm 0.00 in0.0 mm 0.00 in0.0 mm
02:35 PM 46.6°F8.1°C 8.8°F-12.9°C 21% 4.0 mph SW6.4 kmh SW 9.0 mph14.5 kmh 29.38 in994.9 mb 0.00 in0.0 mm 0.00 in0.0 mm 0.00 in0.0 mm
02:40 PM 46.5°F8.1°C 9.7°F-12.4°C 22% 5.0 mph W8.0 kmh W 11.0 mph17.7 kmh 29.38 in994.9 mb 0.00 in0.0 mm 0.00 in0.0 mm 0.00 in0.0 mm
02:45 PM 46.1°F7.8°C 7.3°F-13.7°C 20% 6.0 mph WSW9.7 kmh WSW 11.0 mph17.7 kmh 29.38 in994.9 mb 0.00 in0.0 mm 0.00 in0.0 mm 0.00 in0.0 mm
02:50 PM 46.1°F7.8°C 8.4°F-13.1°C 21% 4.0 mph SW6.4 kmh SW 9.0 mph14.5 kmh 29.38 in994.9 mb 0.00 in0.0 mm 0.00 in0.0 mm 0.00 in0.0 mm
02:55 PM 46.9°F8.3°C 9.0°F-12.8°C 21% 1.0 mph WSW1.6 kmh WSW 4.0 mph6.4 kmh 29.38 in994.9 mb 0.00 in0.0 mm 0.00 in0.0 mm 0.00 in0.0 mm
03:00 PM 47.6°F8.7°C 10.7°F-11.8°C 22% 2.0 mph S3.2 kmh S 5.0 mph8.0 kmh 29.38 in994.9 mb 0.00 in0.0 mm 0.00 in0.0 mm 0.00 in0.0 mm
03:05 PM 48.2°F9.0°C 14.0°F-10.0°C 25% 1.0 mph ESE1.6 kmh ESE 4.0 mph6.4 kmh 29.38 in994.9 mb 0.00 in0.0 mm 0.00 in0.0 mm 0.00 in0.0 mm
03:10 PM 48.2°F9.0°C 13.1°F-10.5°C 24% 2.0 mph SE3.2 kmh SE 8.0 mph12.9 kmh 29.37 in994.6 mb 0.00 in0.0 mm 0.00 in0.0 mm 0.00 in0.0 mm
03:15 PM 47.9°F8.8°C 14.7°F-9.6°C 26% 1.0 mph E1.6 kmh E 6.0 mph9.7 kmh 29.38 in994.9 mb 0.00 in0.0 mm 0.00 in0.0 mm 0.00 in0.0 mm
03:20 PM 47.8°F8.8°C 15.5°F-9.2°C 27% 3.0 mph ESE4.8 kmh ESE 8.0 mph12.9 kmh 29.37 in994.6 mb 0.00 in0.0 mm 0.00 in0.0 mm 0.00 in0.0 mm
03:25 PM 48.0°F8.9°C 15.6°F-9.1°C 27% 1.0 mph E1.6 kmh E 7.0 mph11.3 kmh 29.37 in994.6 mb 0.00 in0.0 mm 0.00 in0.0 mm 0.00 in0.0 mm
03:30 PM 48.0°F8.9°C 14.8°F-9.6°C 26% 1.0 mph ESE1.6 kmh ESE 6.0 mph9.7 kmh 29.38 in994.9 mb 0.00 in0.0 mm 0.00 in0.0 mm 0.00 in0.0 mm
03:35 PM 48.0°F8.9°C 15.6°F-9.1°C 27% 1.0 mph E1.6 kmh E 7.0 mph11.3 kmh 29.37 in994.6 mb 0.00 in0.0 mm 0.00 in0.0 mm 0.00 in0.0 mm
03:40 PM 48.2°F9.0°C 15.8°F-9.0°C 27% 1.0 mph ESE1.6 kmh ESE 6.0 mph9.7 kmh 29.37 in994.6 mb 0.00 in0.0 mm 0.00 in0.0 mm 0.00 in0.0 mm
03:45 PM 48.6°F9.2°C 16.2°F-8.8°C 27% 1.0 mph SE1.6 kmh SE 4.0 mph6.4 kmh 29.37 in994.6 mb 0.00 in0.0 mm 0.00 in0.0 mm 0.00 in0.0 mm
03:50 PM 48.7°F9.3°C 16.2°F-8.8°C 27% 1.0 mph ENE1.6 kmh ENE 4.0 mph6.4 kmh 29.37 in994.6 mb 0.00 in0.0 mm 0.00 in0.0 mm 0.00 in0.0 mm
03:55 PM 48.2°F9.0°C 16.6°F-8.6°C 28% 1.0 mph E1.6 kmh E 4.0 mph6.4 kmh 29.37 in994.6 mb 0.00 in0.0 mm 0.00 in0.0 mm 0.00 in0.0 mm
04:00 PM 48.0°F8.9°C 16.5°F-8.6°C 28% 1.0 mph E1.6 kmh E 7.0 mph11.3 kmh 29.37 in994.6 mb 0.00 in0.0 mm 0.00 in0.0 mm 0.00 in0.0 mm
04:05 PM 47.9°F8.8°C 15.5°F-9.2°C 27% 1.0 mph E1.6 kmh E 7.0 mph11.3 kmh 29.37 in994.6 mb 0.00 in0.0 mm 0.00 in0.0 mm 0.00 in0.0 mm
04:10 PM 47.6°F8.7°C 16.1°F-8.8°C 28% 1.0 mph E1.6 kmh E 4.0 mph6.4 kmh 29.37 in994.6 mb 0.00 in0.0 mm 0.00 in0.0 mm 0.00 in0.0 mm
04:15 PM 47.2°F8.4°C 15.8°F-9.0°C 28% Calm Calm 3.0 mph4.8 kmh 29.37 in994.6 mb 0.00 in0.0 mm 0.00 in0.0 mm 0.00 in0.0 mm
04:20 PM 46.7°F8.2°C 16.2°F-8.8°C 29% Calm Calm 4.0 mph6.4 kmh 29.37 in994.6 mb 0.00 in0.0 mm 0.00 in0.0 mm 0.00 in0.0 mm
04:25 PM 46.4°F8.0°C 15.9°F-8.9°C 29% 1.0 mph ESE1.6 kmh ESE 4.0 mph6.4 kmh 29.37 in994.6 mb 0.00 in0.0 mm 0.00 in0.0 mm 0.00 in0.0 mm
04:30 PM 46.0°F7.8°C 15.5°F-9.2°C 29% 1.0 mph E1.6 kmh E 3.0 mph4.8 kmh 29.37 in994.6 mb 0.00 in0.0 mm 0.00 in0.0 mm 0.00 in0.0 mm
04:35 PM 45.8°F7.7°C 15.4°F-9.2°C 29% Calm Calm 1.0 mph1.6 kmh 29.37 in994.6 mb 0.00 in0.0 mm 0.00 in0.0 mm 0.00 in0.0 mm
04:40 PM 45.5°F7.5°C 15.9°F-8.9°C 30% Calm Calm 1.0 mph1.6 kmh 29.37 in994.6 mb 0.00 in0.0 mm 0.00 in0.0 mm 0.00 in0.0 mm
04:45 PM 44.8°F7.1°C 15.3°F-9.3°C 30% Calm Calm -- 29.38 in994.9 mb 0.00 in0.0 mm 0.00 in0.0 mm 0.00 in0.0 mm
04:50 PM 43.7°F6.5°C 13.6°F-10.2°C 29% Calm Calm 3.0 mph4.8 kmh 29.38 in994.9 mb 0.00 in0.0 mm 0.00 in0.0 mm 0.00 in0.0 mm
04:55 PM 42.4°F5.8°C 13.9°F-10.1°C 31% Calm Calm 3.0 mph4.8 kmh 29.38 in994.9 mb 0.00 in0.0 mm 0.00 in0.0 mm 0.00 in0.0 mm
05:00 PM 41.1°F5.1°C 14.9°F-9.5°C 34% 1.0 mph ESE1.6 kmh ESE 2.0 mph3.2 kmh 29.38 in994.9 mb 0.00 in0.0 mm 0.00 in0.0 mm 0.00 in0.0 mm
05:05 PM 39.8°F4.3°C 15.0°F-9.4°C 36% Calm Calm 2.0 mph3.2 kmh 29.38 in994.9 mb 0.00 in0.0 mm 0.00 in0.0 mm 0.00 in0.0 mm
05:10 PM 38.7°F3.7°C 14.1°F-9.9°C 36% 1.0 mph ESE1.6 kmh ESE 2.0 mph3.2 kmh 29.38 in994.9 mb 0.00 in0.0 mm 0.00 in0.0 mm 0.00 in0.0 mm
05:15 PM 37.1°F2.8°C 14.5°F-9.7°C 39% 2.0 mph E3.2 kmh E 4.0 mph6.4 kmh 29.38 in994.9 mb 0.00 in0.0 mm 0.00 in0.0 mm 0.00 in0.0 mm
05:20 PM 35.9°F2.2°C 14.0°F-10.0°C 40% 2.0 mph E3.2 kmh E 6.0 mph9.7 kmh 29.38 in994.9 mb 0.00 in0.0 mm 0.00 in0.0 mm 0.00 in0.0 mm
05:25 PM 34.9°F1.6°C 14.2°F-9.9°C 42% 2.0 mph E3.2 kmh E 4.0 mph6.4 kmh 29.38 in994.9 mb 0.00 in0.0 mm 0.00 in0.0 mm 0.00 in0.0 mm
05:30 PM 34.2°F1.2°C 13.5°F-10.3°C 42% 1.0 mph E1.6 kmh E 3.0 mph4.8 kmh 29.39 in995.3 mb 0.00 in0.0 mm 0.00 in0.0 mm 0.00 in0.0 mm
05:35 PM 33.5°F0.8°C 13.4°F-10.3°C 43% Calm Calm 2.0 mph3.2 kmh 29.39 in995.3 mb 0.00 in0.0 mm 0.00 in0.0 mm 0.00 in0.0 mm
05:40 PM 32.7°F0.4°C 12.7°F-10.7°C 43% Calm Calm 1.0 mph1.6 kmh 29.39 in995.3 mb 0.00 in0.0 mm 0.00 in0.0 mm 0.00 in0.0 mm
05:45 PM 32.3°F0.2°C 12.9°F-10.6°C 44% Calm Calm -- 29.39 in995.3 mb 0.00 in0.0 mm 0.00 in0.0 mm 0.00 in0.0 mm
05:50 PM 31.8°F-0.1°C 13.4°F-10.3°C 46% Calm Calm 3.0 mph4.8 kmh 29.40 in995.6 mb 0.00 in0.0 mm 0.00 in0.0 mm 0.00 in0.0 mm
05:55 PM 31.7°F-0.2°C 14.3°F-9.8°C 48% 2.0 mph S3.2 kmh S 5.0 mph8.0 kmh 29.40 in995.6 mb 0.00 in0.0 mm 0.00 in0.0 mm 0.00 in0.0 mm
06:00 PM 31.7°F-0.2°C 12.8°F-10.7°C 45% 3.0 mph SSE4.8 kmh SSE 8.0 mph12.9 kmh 29.39 in995.3 mb 0.00 in0.0 mm 0.00 in0.0 mm 0.00 in0.0 mm
06:05 PM 31.5°F-0.3°C 13.1°F-10.5°C 46% 2.0 mph S3.2 kmh S 6.0 mph9.7 kmh 29.39 in995.3 mb 0.00 in0.0 mm 0.00 in0.0 mm 0.00 in0.0 mm
06:10 PM 31.3°F-0.4°C 12.9°F-10.6°C 46% 1.0 mph SSE1.6 kmh SSE 4.0 mph6.4 kmh 29.39 in995.3 mb 0.00 in0.0 mm 0.00 in0.0 mm 0.00 in0.0 mm
06:15 PM 31.1°F-0.5°C 12.8°F-10.7°C 46% Calm Calm 3.0 mph4.8 kmh 29.39 in995.3 mb 0.00 in0.0 mm 0.00 in0.0 mm 0.00 in0.0 mm
06:20 PM 30.7°F-0.7°C 12.9°F-10.6°C 47% 1.0 mph ENE1.6 kmh ENE 3.0 mph4.8 kmh 29.39 in995.3 mb 0.00 in0.0 mm 0.00 in0.0 mm 0.00 in0.0 mm
06:25 PM 30.2°F-1.0°C 12.9°F-10.6°C 48% Calm Calm 2.0 mph3.2 kmh 29.39 in995.3 mb 0.00 in0.0 mm 0.00 in0.0 mm 0.00 in0.0 mm
06:30 PM 29.9°F-1.2°C 12.6°F-10.8°C 48% Calm Calm 2.0 mph3.2 kmh 29.39 in995.3 mb 0.00 in0.0 mm 0.00 in0.0 mm 0.00 in0.0 mm
06:35 PM 29.8°F-1.2°C 12.5°F-10.8°C 48% Calm Calm 1.0 mph1.6 kmh 29.39 in995.3 mb 0.00 in0.0 mm 0.00 in0.0 mm 0.00 in0.0 mm
06:40 PM 29.8°F-1.2°C 12.5°F-10.8°C 48% Calm Calm -- 29.39 in995.3 mb 0.00 in0.0 mm 0.00 in0.0 mm 0.00 in0.0 mm
06:45 PM 29.6°F-1.3°C 12.3°F-10.9°C 48% Calm Calm 1.0 mph1.6 kmh 29.39 in995.3 mb 0.00 in0.0 mm 0.00 in0.0 mm 0.00 in0.0 mm
06:50 PM 29.4°F-1.4°C 12.6°F-10.8°C 49% 1.0 mph W1.6 kmh W 2.0 mph3.2 kmh 29.38 in994.9 mb 0.00 in0.0 mm 0.00 in0.0 mm 0.00 in0.0 mm
06:55 PM 29.4°F-1.4°C 12.6°F-10.8°C 49% 2.0 mph SSW3.2 kmh SSW 3.0 mph4.8 kmh 29.38 in994.9 mb 0.00 in0.0 mm 0.00 in0.0 mm 0.00 in0.0 mm
07:00 PM 29.4°F-1.4°C 12.6°F-10.8°C 49% 1.0 mph SSW1.6 kmh SSW 2.0 mph3.2 kmh 29.38 in994.9 mb 0.00 in0.0 mm 0.00 in0.0 mm 0.00 in0.0 mm
07:05 PM 29.3°F-1.5°C 12.5°F-10.8°C 49% Calm Calm -- 29.38 in994.9 mb 0.00 in0.0 mm 0.00 in0.0 mm 0.00 in0.0 mm
07:10 PM 29.0°F-1.7°C 12.3°F-10.9°C 49% 1.0 mph SE1.6 kmh SE 2.0 mph3.2 kmh 29.38 in994.9 mb 0.00 in0.0 mm 0.00 in0.0 mm 0.00 in0.0 mm
07:15 PM 29.1°F-1.6°C 12.4°F-10.9°C 49% 1.0 mph SSW1.6 kmh SSW 4.0 mph6.4 kmh 29.39 in995.3 mb 0.00 in0.0 mm 0.00 in0.0 mm 0.00 in0.0 mm
07:20 PM 29.3°F-1.5°C 12.5°F-10.8°C 49% 2.0 mph SW3.2 kmh SW 3.0 mph4.8 kmh 29.39 in995.3 mb 0.00 in0.0 mm 0.00 in0.0 mm 0.00 in0.0 mm
07:25 PM 29.2°F-1.6°C 12.4°F-10.9°C 49% 2.0 mph SW3.2 kmh SW 4.0 mph6.4 kmh 29.39 in995.3 mb 0.00 in0.0 mm 0.00 in0.0 mm 0.00 in0.0 mm
07:30 PM 29.2°F-1.6°C 12.4°F-10.9°C 49% 4.0 mph SSW6.4 kmh SSW 6.0 mph9.7 kmh 29.39 in995.3 mb 0.00 in0.0 mm 0.00 in0.0 mm 0.00 in0.0 mm
07:35 PM 29.4°F-1.4°C 12.6°F-10.8°C 49% 3.0 mph SSW4.8 kmh SSW 5.0 mph8.0 kmh 29.39 in995.3 mb 0.00 in0.0 mm 0.00 in0.0 mm 0.00 in0.0 mm
07:40 PM 29.2°F-1.6°C 12.4°F-10.9°C 49% 2.0 mph SSW3.2 kmh SSW 3.0 mph4.8 kmh 29.39 in995.3 mb 0.00 in0.0 mm 0.00 in0.0 mm 0.00 in0.0 mm
07:45 PM 28.7°F-1.8°C 12.9°F-10.6°C 51% 2.0 mph SW3.2 kmh SW 3.0 mph4.8 kmh 29.39 in995.3 mb 0.00 in0.0 mm 0.00 in0.0 mm 0.00 in0.0 mm
07:50 PM 28.5°F-1.9°C 12.7°F-10.7°C 51% 2.0 mph SW3.2 kmh SW 3.0 mph4.8 kmh 29.39 in995.3 mb 0.00 in0.0 mm 0.00 in0.0 mm 0.00 in0.0 mm
07:55 PM 28.4°F-2.0°C 12.6°F-10.8°C 51% 2.0 mph SW3.2 kmh SW 6.0 mph9.7 kmh 29.39 in995.3 mb 0.00 in0.0 mm 0.00 in0.0 mm 0.00 in0.0 mm
08:00 PM 28.4°F-2.0°C 13.0°F-10.6°C 52% 2.0 mph SW3.2 kmh SW 6.0 mph9.7 kmh 29.38 in994.9 mb 0.00 in0.0 mm 0.00 in0.0 mm 0.00 in0.0 mm
08:05 PM 28.3°F-2.1°C 13.0°F-10.6°C 52% 2.0 mph SW3.2 kmh SW 4.0 mph6.4 kmh 29.39 in995.3 mb 0.00 in0.0 mm 0.00 in0.0 mm 0.00 in0.0 mm
08:10 PM 28.3°F-2.1°C 13.0°F-10.6°C 52% 2.0 mph SW3.2 kmh SW 4.0 mph6.4 kmh 29.39 in995.3 mb 0.00 in0.0 mm 0.00 in0.0 mm 0.00 in0.0 mm
08:15 PM 28.4°F-2.0°C 13.0°F-10.6°C 52% 1.0 mph SW1.6 kmh SW 2.0 mph3.2 kmh 29.39 in995.3 mb 0.00 in0.0 mm 0.00 in0.0 mm 0.00 in0.0 mm
08:20 PM 28.4°F-2.0°C 13.0°F-10.6°C 52% 2.0 mph S3.2 kmh S 3.0 mph4.8 kmh 29.39 in995.3 mb 0.00 in0.0 mm 0.00 in0.0 mm 0.00 in0.0 mm
08:25 PM 28.4°F-2.0°C 13.0°F-10.6°C 52% 2.0 mph SSW3.2 kmh SSW 3.0 mph4.8 kmh 29.39 in995.3 mb 0.00 in0.0 mm 0.00 in0.0 mm 0.00 in0.0 mm
08:30 PM 28.5°F-1.9°C 12.7°F-10.7°C 51% 2.0 mph SSW3.2 kmh SSW 3.0 mph4.8 kmh 29.39 in995.3 mb 0.00 in0.0 mm 0.00 in0.0 mm 0.00 in0.0 mm
08:35 PM 28.5°F-1.9°C 12.7°F-10.7°C 51% 2.0 mph SW3.2 kmh SW 4.0 mph6.4 kmh 29.39 in995.3 mb 0.00 in0.0 mm 0.00 in0.0 mm 0.00 in0.0 mm
08:40 PM 28.4°F-2.0°C 12.6°F-10.8°C 51% 1.0 mph SW1.6 kmh SW 3.0 mph4.8 kmh 29.39 in995.3 mb 0.00 in0.0 mm 0.00 in0.0 mm 0.00 in0.0 mm
08:45 PM 28.2°F-2.1°C 12.9°F-10.6°C 52% 2.0 mph SW3.2 kmh SW 3.0 mph4.8 kmh 29.39 in995.3 mb 0.00 in0.0 mm 0.00 in0.0 mm 0.00 in0.0 mm
08:50 PM 28.1°F-2.2°C 12.8°F-10.7°C 52% 1.0 mph WSW1.6 kmh WSW 2.0 mph3.2 kmh 29.39 in995.3 mb 0.00 in0.0 mm 0.00 in0.0 mm 0.00 in0.0 mm
08:55 PM 27.9°F-2.3°C 12.6°F-10.8°C 52% Calm Calm 2.0 mph3.2 kmh 29.38 in994.9 mb 0.00 in0.0 mm 0.00 in0.0 mm 0.00 in0.0 mm
09:00 PM 27.8°F-2.3°C 12.5°F-10.8°C 52% Calm Calm 1.0 mph1.6 kmh 29.38 in994.9 mb 0.00 in0.0 mm 0.00 in0.0 mm 0.00 in0.0 mm
09:05 PM 27.7°F-2.4°C 12.8°F-10.7°C 53% Calm Calm 2.0 mph3.2 kmh 29.38 in994.9 mb 0.00 in0.0 mm 0.00 in0.0 mm 0.00 in0.0 mm
09:10 PM 27.4°F-2.6°C 12.5°F-10.8°C 53% 1.0 mph E1.6 kmh E 2.0 mph3.2 kmh 29.38 in994.9 mb 0.00 in0.0 mm 0.00 in0.0 mm 0.00 in0.0 mm
09:15 PM 27.2°F-2.7°C 12.8°F-10.7°C 54% 2.0 mph E3.2 kmh E 3.0 mph4.8 kmh 29.37 in994.6 mb 0.00 in0.0 mm 0.00 in0.0 mm 0.00 in0.0 mm
09:20 PM 27.0°F-2.8°C 13.0°F-10.6°C 55% 1.0 mph ESE1.6 kmh ESE 3.0 mph4.8 kmh 29.38 in994.9 mb 0.00 in0.0 mm 0.00 in0.0 mm 0.00 in0.0 mm
09:25 PM 26.8°F-2.9°C 13.2°F-10.4°C 56% 1.0 mph ESE1.6 kmh ESE 3.0 mph4.8 kmh 29.38 in994.9 mb 0.00 in0.0 mm 0.00 in0.0 mm 0.00 in0.0 mm
09:30 PM 26.7°F-2.9°C 13.1°F-10.5°C 56% 1.0 mph ESE1.6 kmh ESE 3.0 mph4.8 kmh 29.38 in994.9 mb 0.00 in0.0 mm 0.00 in0.0 mm 0.00 in0.0 mm
09:35 PM 27.0°F-2.8°C 13.0°F-10.6°C 55% 1.0 mph SSE1.6 kmh SSE 4.0 mph6.4 kmh 29.38 in994.9 mb 0.00 in0.0 mm 0.00 in0.0 mm 0.00 in0.0 mm
09:40 PM 27.3°F-2.6°C 13.3°F-10.4°C 55% Calm Calm 2.0 mph3.2 kmh 29.38 in994.9 mb 0.00 in0.0 mm 0.00 in0.0 mm 0.00 in0.0 mm
09:45 PM 27.5°F-2.5°C 13.1°F-10.5°C 54% 2.0 mph S3.2 kmh S 5.0 mph8.0 kmh 29.38 in994.9 mb 0.00 in0.0 mm 0.00 in0.0 mm 0.00 in0.0 mm
09:50 PM 27.8°F-2.3°C 13.3°F-10.4°C 54% 2.0 mph S3.2 kmh S 3.0 mph4.8 kmh 29.38 in994.9 mb 0.00 in0.0 mm 0.00 in0.0 mm 0.00 in0.0 mm
09:55 PM 28.0°F-2.2°C 13.5°F-10.3°C 54% 2.0 mph S3.2 kmh S 5.0 mph8.0 kmh 29.38 in994.9 mb 0.00 in0.0 mm 0.00 in0.0 mm 0.00 in0.0 mm
10:00 PM 28.0°F-2.2°C 13.5°F-10.3°C 54% 1.0 mph S1.6 kmh S 3.0 mph4.8 kmh 29.38 in994.9 mb 0.00 in0.0 mm 0.00 in0.0 mm 0.00 in0.0 mm
10:05 PM 28.0°F-2.2°C 13.9°F-10.1°C 55% 2.0 mph S3.2 kmh S 4.0 mph6.4 kmh 29.38 in994.9 mb 0.00 in0.0 mm 0.00 in0.0 mm 0.00 in0.0 mm
10:10 PM 28.1°F-2.2°C 13.6°F-10.2°C 54% 1.0 mph S1.6 kmh S 3.0 mph4.8 kmh 29.38 in994.9 mb 0.00 in0.0 mm 0.00 in0.0 mm 0.00 in0.0 mm
10:15 PM 28.1°F-2.2°C 13.6°F-10.2°C 54% 1.0 mph S1.6 kmh S 3.0 mph4.8 kmh 29.37 in994.6 mb 0.00 in0.0 mm 0.00 in0.0 mm 0.00 in0.0 mm
10:20 PM 28.1°F-2.2°C 14.0°F-10.0°C 55% 2.0 mph SSW3.2 kmh SSW 4.0 mph6.4 kmh 29.37 in994.6 mb 0.00 in0.0 mm 0.00 in0.0 mm 0.00 in0.0 mm
10:25 PM 28.0°F-2.2°C 13.9°F-10.1°C 55% 2.0 mph SSW3.2 kmh SSW 4.0 mph6.4 kmh 29.37 in994.6 mb 0.00 in0.0 mm 0.00 in0.0 mm 0.00 in0.0 mm
10:30 PM 27.9°F-2.3°C 13.9°F-10.1°C 55% 2.0 mph SSW3.2 kmh SSW 4.0 mph6.4 kmh 29.37 in994.6 mb 0.00 in0.0 mm 0.00 in0.0 mm 0.00 in0.0 mm
10:35 PM 27.8°F-2.3°C 13.8°F-10.1°C 55% 3.0 mph SSW4.8 kmh SSW 5.0 mph8.0 kmh 29.37 in994.6 mb 0.00 in0.0 mm 0.00 in0.0 mm 0.00 in0.0 mm
10:40 PM 27.9°F-2.3°C 13.9°F-10.1°C 55% 3.0 mph SW4.8 kmh SW 5.0 mph8.0 kmh 29.37 in994.6 mb 0.00 in0.0 mm 0.00 in0.0 mm 0.00 in0.0 mm
10:45 PM 27.9°F-2.3°C 13.9°F-10.1°C 55% 2.0 mph SW3.2 kmh SW 4.0 mph6.4 kmh 29.37 in994.6 mb 0.00 in0.0 mm 0.00 in0.0 mm 0.00 in0.0 mm
10:50 PM 28.0°F-2.2°C 13.9°F-10.1°C 55% 1.0 mph SSW1.6 kmh SSW 3.0 mph4.8 kmh 29.37 in994.6 mb 0.00 in0.0 mm 0.00 in0.0 mm 0.00 in0.0 mm
10:55 PM 28.0°F-2.2°C 13.9°F-10.1°C 55% 2.0 mph SW3.2 kmh SW 3.0 mph4.8 kmh 29.36 in994.2 mb 0.00 in0.0 mm 0.00 in0.0 mm 0.00 in0.0 mm
11:00 PM 28.0°F-2.2°C 13.9°F-10.1°C 55% 1.0 mph SSW1.6 kmh SSW 2.0 mph3.2 kmh 29.36 in994.2 mb 0.00 in0.0 mm 0.00 in0.0 mm 0.00 in0.0 mm
11:05 PM 27.9°F-2.3°C 14.3°F-9.8°C 56% Calm Calm 2.0 mph3.2 kmh 29.36 in994.2 mb 0.00 in0.0 mm 0.00 in0.0 mm 0.00 in0.0 mm
11:10 PM 27.9°F-2.3°C 14.3°F-9.8°C 56% 1.0 mph SSW1.6 kmh SSW 3.0 mph4.8 kmh 29.36 in994.2 mb 0.00 in0.0 mm 0.00 in0.0 mm 0.00 in0.0 mm
11:15 PM 27.9°F-2.3°C 14.3°F-9.8°C 56% 1.0 mph SSW1.6 kmh SSW 2.0 mph3.2 kmh 29.36 in994.2 mb 0.00 in0.0 mm 0.00 in0.0 mm 0.00 in0.0 mm
11:20 PM 28.0°F-2.2°C 14.4°F-9.8°C 56% Calm Calm -- 29.36 in994.2 mb 0.00 in0.0 mm 0.00 in0.0 mm 0.00 in0.0 mm
11:25 PM 28.0°F-2.2°C 13.9°F-10.1°C 55% Calm Calm 2.0 mph3.2 kmh 29.35 in993.9 mb 0.00 in0.0 mm 0.00 in0.0 mm 0.00 in0.0 mm
11:30 PM 28.0°F-2.2°C 13.9°F-10.1°C 55% Calm Calm 1.0 mph1.6 kmh 29.35 in993.9 mb 0.00 in0.0 mm 0.00 in0.0 mm 0.00 in0.0 mm
11:35 PM 28.0°F-2.2°C 13.9°F-10.1°C 55% Calm Calm 1.0 mph1.6 kmh 29.34 in993.6 mb 0.00 in0.0 mm 0.00 in0.0 mm 0.00 in0.0 mm
11:40 PM 28.0°F-2.2°C 13.9°F-10.1°C 55% Calm Calm 2.0 mph3.2 kmh 29.34 in993.6 mb 0.00 in0.0 mm 0.00 in0.0 mm 0.00 in0.0 mm
11:45 PM 28.1°F-2.2°C 14.4°F-9.8°C 56% 1.0 mph SSW1.6 kmh SSW 3.0 mph4.8 kmh 29.34 in993.6 mb 0.00 in0.0 mm 0.00 in0.0 mm 0.00 in0.0 mm
11:50 PM 28.2°F-2.1°C 14.5°F-9.7°C 56% 1.0 mph W1.6 kmh W 3.0 mph4.8 kmh 29.33 in993.2 mb 0.00 in0.0 mm 0.00 in0.0 mm 0.00 in0.0 mm
11:55 PM 28.2°F-2.1°C 14.5°F-9.7°C 56% 1.0 mph W1.6 kmh W 3.0 mph4.8 kmh 29.33 in993.2 mb 0.00 in0.0 mm 0.00 in0.0 mm 0.00 in0.0 mm